createdAt,value
2023-05-02T00:02:08.873Z,100.00
2023-05-02T00:04:37.174Z,100.00
2023-05-02T00:07:05.090Z,100.00
2023-05-02T00:09:32.853Z,100.00
2023-05-02T00:12:00.943Z,100.00
2023-05-02T00:14:30.225Z,100.00
2023-05-02T00:16:58.076Z,100.00
2023-05-02T00:19:25.948Z,100.00
2023-05-02T00:21:53.741Z,100.00
2023-05-02T00:24:21.584Z,100.00
2023-05-02T00:26:51.940Z,100.00
2023-05-02T00:29:19.708Z,100.00
2023-05-02T00:31:48.856Z,100.00
2023-05-02T00:34:16.624Z,100.00
2023-05-02T00:36:44.423Z,100.00
2023-05-02T00:39:12.218Z,100.00
2023-05-02T00:41:40.018Z,100.00
2023-05-02T00:44:08.882Z,100.00
2023-05-02T00:46:36.691Z,100.00
2023-05-02T00:49:06.029Z,100.00
2023-05-02T00:51:34.280Z,100.00
2023-05-02T00:54:02.458Z,100.00
2023-05-02T00:56:30.438Z,100.00
2023-05-02T00:58:58.993Z,100.00
2023-05-02T01:01:41.124Z,100.00
2023-05-02T01:04:15.990Z,100.00
2023-05-02T01:06:54.603Z,100.00
2023-05-02T01:09:36.359Z,100.00
2023-05-02T01:12:11.030Z,100.00
2023-05-02T01:14:43.194Z,100.00
2023-05-02T01:17:14.673Z,100.00
2023-05-02T01:19:54.134Z,100.00
2023-05-02T01:22:23.650Z,100.00
2023-05-02T01:25:03.407Z,100.00
2023-05-02T01:27:40.418Z,100.00
2023-05-02T01:30:13.373Z,100.00
2023-05-02T01:32:45.409Z,100.00
2023-05-02T01:35:16.029Z,100.00
2023-05-02T01:37:46.193Z,100.00
2023-05-02T01:40:17.540Z,100.00
2023-05-02T01:42:47.174Z,100.00
2023-05-02T01:45:17.303Z,100.00
2023-05-02T01:47:47.124Z,100.00
2023-05-02T01:50:18.766Z,100.00
2023-05-02T01:52:48.701Z,100.00
2023-05-02T01:55:18.790Z,100.00
2023-05-02T01:57:50.486Z,100.00
2023-05-02T02:00:21.829Z,100.00
2023-05-02T02:02:50.899Z,100.00
2023-05-02T02:05:20.647Z,100.00
2023-05-02T02:07:48.902Z,100.00
2023-05-02T02:10:16.771Z,100.00
2023-05-02T02:12:50.094Z,100.00
2023-05-02T02:15:26.718Z,100.00
2023-05-02T02:18:00.458Z,100.00
2023-05-02T02:20:29.540Z,100.00
2023-05-02T02:22:59.758Z,100.00
2023-05-02T02:25:34.691Z,100.00
2023-05-02T02:28:02.935Z,100.00
2023-05-02T02:30:32.538Z,100.00
2023-05-02T02:33:00.381Z,100.00
2023-05-02T02:35:34.414Z,100.00
2023-05-02T02:38:12.632Z,100.00
2023-05-02T02:40:47.041Z,100.00
2023-05-02T02:43:21.906Z,100.00
2023-05-02T02:46:04.257Z,100.00
2023-05-02T02:48:37.236Z,100.00
2023-05-02T02:51:12.847Z,100.00
2023-05-02T02:53:51.996Z,100.00
2023-05-02T02:56:27.907Z,100.00
2023-05-02T02:58:59.996Z,100.00
2023-05-02T03:01:32.533Z,100.00
2023-05-02T03:04:00.823Z,100.00
2023-05-02T03:06:29.070Z,100.00
2023-05-02T03:08:56.859Z,100.00
2023-05-02T03:11:24.627Z,100.00
2023-05-02T03:13:52.865Z,100.00
2023-05-02T03:16:33.756Z,100.00
2023-05-02T03:19:01.560Z,100.00
2023-05-02T03:21:29.745Z,100.00
2023-05-02T03:23:57.591Z,100.00
2023-05-02T03:26:25.774Z,100.00
2023-05-02T03:28:53.970Z,100.00
2023-05-02T03:31:24.034Z,100.00
2023-05-02T03:33:54.665Z,100.00
2023-05-02T03:36:22.624Z,100.00
2023-05-02T03:38:50.899Z,100.00
2023-05-02T03:41:20.119Z,100.00
2023-05-02T03:43:47.969Z,100.00
2023-05-02T03:46:16.100Z,100.00
2023-05-02T03:48:46.355Z,100.00
2023-05-02T03:51:15.711Z,100.00
2023-05-02T03:53:43.561Z,100.00
2023-05-02T03:56:11.401Z,100.00
2023-05-02T03:58:39.213Z,100.00
2023-05-02T04:01:15.057Z,100.00
2023-05-02T04:03:43.257Z,100.00
2023-05-02T04:06:11.178Z,100.00
2023-05-02T04:08:40.500Z,100.00
2023-05-02T04:11:08.335Z,100.00
2023-05-02T04:13:36.114Z,100.00
2023-05-02T04:16:04.556Z,100.00
2023-05-02T04:18:32.328Z,100.00
2023-05-02T04:21:00.059Z,100.00
2023-05-02T04:23:28.911Z,100.00
2023-05-02T04:25:58.056Z,100.00
2023-05-02T04:28:25.881Z,100.00
2023-05-02T04:30:54.057Z,100.00
2023-05-02T04:33:21.958Z,100.00
2023-05-02T04:35:49.658Z,100.00
2023-05-02T04:38:17.729Z,100.00
2023-05-02T04:40:45.973Z,100.00
2023-05-02T04:43:15.107Z,100.00
2023-05-02T04:45:43.191Z,100.00
2023-05-02T04:48:11.074Z,100.00
2023-05-02T04:50:38.925Z,100.00
2023-05-02T04:53:07.030Z,100.00
2023-05-02T04:55:34.857Z,100.00
2023-05-02T04:58:02.612Z,100.00
2023-05-02T05:00:31.720Z,100.00
2023-05-02T05:03:01.732Z,100.00
2023-05-02T05:05:29.986Z,100.00
2023-05-02T05:07:57.770Z,100.00
2023-05-02T05:10:25.587Z,100.00
2023-05-02T05:12:53.507Z,100.00
2023-05-02T05:15:22.552Z,100.00
2023-05-02T05:17:52.083Z,100.00
2023-05-02T05:20:19.971Z,100.00
2023-05-02T05:22:47.834Z,100.00
2023-05-02T05:25:16.035Z,100.00
2023-05-02T05:27:43.709Z,100.00
2023-05-02T05:30:12.370Z,100.00
2023-05-02T05:32:40.330Z,100.00
2023-05-02T05:35:10.417Z,100.00
2023-05-02T05:37:39.477Z,100.00
2023-05-02T05:40:08.792Z,100.00
2023-05-02T05:42:36.606Z,100.00
2023-05-02T05:45:04.491Z,100.00
2023-05-02T05:47:32.459Z,100.00
2023-05-02T05:50:00.613Z,100.00
2023-05-02T05:52:30.254Z,100.00
2023-05-02T05:54:58.100Z,100.00
2023-05-02T05:57:25.873Z,100.00
2023-05-02T05:59:53.614Z,100.00
2023-05-02T06:02:21.565Z,100.00
2023-05-02T06:04:49.368Z,100.00
2023-05-02T06:07:17.136Z,100.00
2023-05-02T06:09:46.317Z,100.00
2023-05-02T06:12:16.323Z,100.00
2023-05-02T06:14:44.201Z,100.00
2023-05-02T06:17:12.031Z,100.00
2023-05-02T06:19:39.850Z,100.00
2023-05-02T06:22:07.985Z,100.00
2023-05-02T06:24:35.797Z,100.00
2023-05-02T06:27:05.052Z,100.00
2023-05-02T06:29:32.728Z,100.00
2023-05-02T06:32:00.631Z,100.00
2023-05-02T06:34:28.917Z,100.00
2023-05-02T06:36:57.406Z,100.00
2023-05-02T06:39:25.191Z,100.00
2023-05-02T06:41:53.007Z,100.00
2023-05-02T06:44:22.184Z,100.00
2023-05-02T06:46:50.170Z,100.00
2023-05-02T06:49:18.058Z,100.00
2023-05-02T06:51:45.827Z,100.00
2023-05-02T06:54:14.861Z,100.00
2023-05-02T06:56:43.370Z,100.00
2023-05-02T06:59:12.145Z,100.00
2023-05-02T07:01:41.539Z,100.00
2023-05-02T07:04:09.437Z,100.00
2023-05-02T07:06:37.315Z,100.00
2023-05-02T07:09:05.299Z,100.00
2023-05-02T07:11:33.057Z,100.00
2023-05-02T07:14:00.849Z,100.00
2023-05-02T07:16:29.326Z,100.00
2023-05-02T07:18:58.513Z,100.00
2023-05-02T07:21:26.601Z,100.00
2023-05-02T07:23:55.715Z,100.00
2023-05-02T07:26:23.552Z,100.00
2023-05-02T07:28:51.373Z,100.00
2023-05-02T07:31:19.356Z,100.00
2023-05-02T07:33:47.109Z,100.00
2023-05-02T07:36:16.872Z,100.00
2023-05-02T07:38:44.860Z,100.00
2023-05-02T07:41:14.896Z,100.00
2023-05-02T07:43:42.938Z,100.00
2023-05-02T07:46:11.141Z,100.00
2023-05-02T07:48:38.921Z,100.00
2023-05-02T07:51:10.505Z,100.00
2023-05-02T07:53:40.073Z,100.00
2023-05-02T07:56:09.503Z,100.00
2023-05-02T07:58:37.436Z,100.00
2023-05-02T08:01:05.504Z,100.00
2023-05-02T08:03:33.529Z,100.00
2023-05-02T08:06:02.142Z,100.00
2023-05-02T08:08:30.053Z,100.00
2023-05-02T08:10:59.700Z,100.00
2023-05-02T08:13:28.570Z,100.00
2023-05-02T08:15:58.011Z,100.00
2023-05-02T08:18:26.132Z,100.00
2023-05-02T08:20:54.078Z,100.00
2023-05-02T08:23:21.837Z,100.00
2023-05-02T08:25:49.589Z,100.00
2023-05-02T08:28:19.723Z,100.00
2023-05-02T08:30:47.625Z,100.00
2023-05-02T08:33:15.545Z,100.00
2023-05-02T08:35:43.326Z,100.00
2023-05-02T08:38:11.392Z,100.00
2023-05-02T08:40:42.918Z,100.00
2023-05-02T08:43:12.816Z,100.00
2023-05-02T08:45:44.035Z,100.00
2023-05-02T08:48:13.684Z,100.00
2023-05-02T08:50:44.504Z,100.00
2023-05-02T08:53:14.388Z,100.00
2023-05-02T08:55:44.024Z,100.00
2023-05-02T08:58:14.687Z,100.00
2023-05-02T09:00:46.828Z,100.00
2023-05-02T09:03:25.031Z,100.00
2023-05-02T09:05:55.286Z,100.00
2023-05-02T09:08:24.258Z,100.00
2023-05-02T09:10:52.313Z,98.54
2023-05-02T09:13:30.820Z,98.98
2023-05-02T09:16:01.500Z,100.00
2023-05-02T09:18:34.157Z,94.03
2023-05-02T09:21:06.441Z,100.00
2023-05-02T09:23:40.244Z,96.10
2023-05-02T09:26:16.027Z,100.00
2023-05-02T09:28:45.357Z,88.39
2023-05-02T09:31:22.964Z,90.73
2023-05-02T09:33:56.166Z,93.44
2023-05-02T09:36:25.842Z,91.97
2023-05-02T09:38:53.911Z,86.86
2023-05-02T09:41:22.185Z,99.78
2023-05-02T09:43:57.485Z,89.55
2023-05-02T09:46:26.919Z,84.79
2023-05-02T09:48:56.145Z,86.61
2023-05-02T09:51:25.563Z,79.35
2023-05-02T09:53:53.952Z,77.30
2023-05-02T09:56:23.852Z,82.03
2023-05-02T09:58:51.714Z,83.74
2023-05-02T10:01:22.047Z,85.71
2023-05-02T10:03:51.433Z,85.90
2023-05-02T10:06:21.437Z,91.91
2023-05-02T10:08:50.132Z,74.33
2023-05-02T10:11:18.081Z,71.80
2023-05-02T10:13:46.991Z,67.35
2023-05-02T10:16:24.106Z,72.43
2023-05-02T10:19:03.636Z,73.06
2023-05-02T10:21:32.483Z,67.64
2023-05-02T10:24:03.308Z,69.37
2023-05-02T10:26:31.800Z,65.08
2023-05-02T10:29:00.652Z,67.09
2023-05-02T10:31:34.516Z,62.97
2023-05-02T10:34:04.922Z,62.44
2023-05-02T10:36:33.597Z,66.43
2023-05-02T10:39:02.232Z,79.47
2023-05-02T10:41:33.567Z,72.15
2023-05-02T10:44:02.468Z,79.39
2023-05-02T10:46:34.309Z,76.94
2023-05-02T10:49:04.352Z,80.90
2023-05-02T10:51:32.468Z,83.58
2023-05-02T10:54:21.516Z,87.77
2023-05-02T10:57:06.796Z,92.42
2023-05-02T10:59:36.467Z,100.00
2023-05-02T11:02:06.995Z,96.91
2023-05-02T11:05:02.616Z,97.71
2023-05-02T11:07:31.762Z,100.00
2023-05-02T11:10:28.191Z,100.00
2023-05-02T11:12:57.511Z,98.49
2023-05-02T11:16:00.001Z,87.36
2023-05-02T11:18:27.561Z,83.32
2023-05-02T11:21:27.553Z,74.03
2023-05-02T11:24:40.995Z,60.97
2023-05-02T11:27:39.629Z,52.56
2023-05-02T11:30:09.444Z,49.93
2023-05-02T11:33:16.140Z,52.52
2023-05-02T11:35:46.715Z,59.32
2023-05-02T11:38:16.651Z,61.81
2023-05-02T11:41:00.665Z,64.28
2023-05-02T11:43:32.168Z,71.42
2023-05-02T11:46:01.750Z,72.46
2023-05-02T11:48:31.530Z,58.27
2023-05-02T11:51:03.563Z,56.02
2023-05-02T11:53:32.169Z,54.05
2023-05-02T11:56:02.788Z,50.47
2023-05-02T11:58:32.823Z,47.54
2023-05-02T12:01:12.427Z,46.04
2023-05-02T12:03:40.846Z,47.82
2023-05-02T12:06:13.614Z,53.60
2023-05-02T12:08:43.637Z,60.70
2023-05-02T12:11:14.602Z,67.25
2023-05-02T12:13:46.932Z,58.37
2023-05-02T12:16:15.048Z,52.19
2023-05-02T12:18:43.578Z,50.18
2023-05-02T12:21:11.708Z,51.25
2023-05-02T12:23:42.325Z,50.56
2023-05-02T12:26:21.928Z,51.74
2023-05-02T12:28:51.257Z,55.97
2023-05-02T12:31:19.775Z,55.36
2023-05-02T12:33:50.332Z,57.15
2023-05-02T12:36:18.493Z,62.56
2023-05-02T12:38:51.028Z,64.92
2023-05-02T12:41:20.922Z,77.44
2023-05-02T12:43:51.313Z,84.87
2023-05-02T12:46:19.131Z,96.47
2023-05-02T12:48:47.149Z,100.00
2023-05-02T12:51:24.806Z,100.00
2023-05-02T12:53:52.557Z,100.00
2023-05-02T12:56:22.177Z,100.00
2023-05-02T12:58:50.927Z,100.00
2023-05-02T13:01:18.852Z,100.00
2023-05-02T13:03:46.745Z,100.00
2023-05-02T13:06:14.698Z,100.00
2023-05-02T13:08:42.461Z,100.00
2023-05-02T13:11:10.263Z,100.00
2023-05-02T13:13:39.454Z,100.00
2023-05-02T13:16:08.237Z,100.00
2023-05-02T13:18:36.418Z,100.00
2023-05-02T13:21:05.111Z,100.00
2023-05-02T13:23:32.963Z,100.00
2023-05-02T13:26:01.010Z,100.00
2023-05-02T13:28:33.269Z,100.00
2023-05-02T13:31:02.528Z,100.00
2023-05-02T13:33:30.350Z,100.00
2023-05-02T13:35:58.072Z,100.00
2023-05-02T13:38:26.768Z,100.00
2023-05-02T13:40:54.866Z,100.00
2023-05-02T13:43:22.738Z,100.00
2023-05-02T13:45:52.172Z,100.00
2023-05-02T13:48:21.279Z,100.00
2023-05-02T13:50:49.124Z,100.00
2023-05-02T13:53:16.920Z,100.00
2023-05-02T13:55:44.717Z,100.00
2023-05-02T13:58:12.506Z,100.00
2023-05-02T14:00:40.248Z,100.00
2023-05-02T14:03:08.146Z,100.00
2023-05-02T14:05:37.562Z,100.00
2023-05-02T14:08:05.641Z,100.00
2023-05-02T14:10:33.386Z,100.00
2023-05-02T14:13:01.145Z,100.00
2023-05-02T14:15:29.134Z,100.00
2023-05-02T14:17:56.999Z,100.00
2023-05-02T14:20:24.936Z,100.00
2023-05-02T14:22:54.187Z,100.00
2023-05-02T14:25:22.052Z,100.00
2023-05-02T14:27:49.971Z,100.00
2023-05-02T14:30:17.970Z,100.00
2023-05-02T14:32:45.748Z,100.00
2023-05-02T14:35:13.506Z,100.00
2023-05-02T14:37:44.865Z,100.00
2023-05-02T14:40:15.305Z,100.00
2023-05-02T14:42:43.471Z,100.00
2023-05-02T14:45:12.307Z,94.00
2023-05-02T14:47:40.110Z,95.98
2023-05-02T14:50:08.923Z,74.34
2023-05-02T14:52:36.748Z,68.39
2023-05-02T14:55:05.675Z,66.77
2023-05-02T14:57:34.818Z,67.92
2023-05-02T15:00:02.832Z,64.40
2023-05-02T15:02:31.050Z,68.05
2023-05-02T15:04:58.896Z,68.60
2023-05-02T15:07:27.652Z,58.40
2023-05-02T15:09:55.709Z,57.45
2023-05-02T15:12:23.561Z,56.38
2023-05-02T15:14:52.900Z,62.75
2023-05-02T15:17:21.478Z,69.21
2023-05-02T15:19:49.290Z,62.21
2023-05-02T15:22:18.403Z,74.30
2023-05-02T15:24:46.248Z,80.70
2023-05-02T15:27:14.926Z,82.46
2023-05-02T15:29:42.686Z,79.24
2023-05-02T15:32:11.948Z,68.03
2023-05-02T15:34:39.741Z,85.11
2023-05-02T15:37:08.055Z,96.85
2023-05-02T15:39:35.894Z,100.00
2023-05-02T15:42:04.828Z,100.00
2023-05-02T15:44:36.133Z,100.00
2023-05-02T15:47:03.870Z,100.00
2023-05-02T15:49:33.493Z,100.00
2023-05-02T15:52:03.092Z,100.00
2023-05-02T15:54:33.153Z,100.00
2023-05-02T15:57:02.561Z,100.00
2023-05-02T15:59:33.286Z,100.00
2023-05-02T16:02:01.050Z,100.00
2023-05-02T16:04:29.165Z,92.41
2023-05-02T16:06:58.479Z,98.66
2023-05-02T16:09:26.339Z,100.00
2023-05-02T16:11:54.076Z,95.01
2023-05-02T16:14:23.829Z,100.00
2023-05-02T16:16:51.650Z,100.00
2023-05-02T16:19:19.403Z,100.00
2023-05-02T16:21:47.547Z,100.00
2023-05-02T16:24:16.848Z,100.00
2023-05-02T16:26:45.425Z,100.00
2023-05-02T16:29:13.587Z,100.00
2023-05-02T16:31:44.204Z,100.00
2023-05-02T16:34:12.310Z,100.00
2023-05-02T16:36:40.002Z,100.00
2023-05-02T16:39:07.744Z,100.00
2023-05-02T16:41:37.202Z,100.00
2023-05-02T16:44:05.137Z,100.00
2023-05-02T16:46:33.035Z,100.00
2023-05-02T16:49:00.870Z,100.00
2023-05-02T16:51:31.323Z,100.00
2023-05-02T16:53:59.209Z,100.00
2023-05-02T16:56:27.136Z,100.00
2023-05-02T16:58:56.490Z,100.00
2023-05-02T17:01:25.068Z,100.00
2023-05-02T17:03:52.939Z,100.00
2023-05-02T17:06:20.889Z,100.00
2023-05-02T17:08:48.678Z,100.00
2023-05-02T17:11:17.447Z,100.00
2023-05-02T17:13:47.237Z,100.00
2023-05-02T17:16:17.849Z,100.00
2023-05-02T17:18:45.633Z,100.00
2023-05-02T17:21:13.727Z,100.00
2023-05-02T17:23:41.867Z,100.00
2023-05-02T17:26:14.361Z,100.00
2023-05-02T17:28:43.503Z,100.00
2023-05-02T17:31:11.515Z,100.00
2023-05-02T17:33:42.296Z,100.00
2023-05-02T17:36:10.681Z,100.00
2023-05-02T17:38:38.561Z,100.00
2023-05-02T17:41:06.403Z,100.00
2023-05-02T17:43:34.250Z,100.00
2023-05-02T17:46:08.147Z,100.00
2023-05-02T17:48:36.908Z,100.00
2023-05-02T17:51:07.088Z,100.00
2023-05-02T17:53:36.709Z,100.00
2023-05-02T17:56:04.786Z,100.00
2023-05-02T17:58:35.377Z,100.00
2023-05-02T18:01:08.154Z,100.00
2023-05-02T18:03:36.419Z,100.00
2023-05-02T18:06:06.009Z,100.00
2023-05-02T18:08:33.841Z,100.00
2023-05-02T18:11:03.208Z,100.00
2023-05-02T18:13:31.158Z,100.00
2023-05-02T18:16:00.002Z,100.00
2023-05-02T18:18:27.823Z,100.00
2023-05-02T18:20:55.813Z,100.00
2023-05-02T18:23:25.132Z,100.00
2023-05-02T18:25:54.299Z,100.00
2023-05-02T18:28:23.019Z,100.00
2023-05-02T18:30:59.555Z,100.00
2023-05-02T18:33:33.021Z,100.00
2023-05-02T18:36:01.952Z,100.00
2023-05-02T18:38:32.060Z,100.00
2023-05-02T18:41:00.262Z,100.00
2023-05-02T18:43:41.851Z,100.00
2023-05-02T18:46:11.860Z,100.00
2023-05-02T18:48:39.685Z,100.00
2023-05-02T18:51:07.755Z,100.00
2023-05-02T18:53:36.877Z,100.00
2023-05-02T18:56:04.966Z,100.00
2023-05-02T18:58:34.003Z,100.00
2023-05-02T19:01:02.320Z,100.00
2023-05-02T19:03:30.402Z,100.00
2023-05-02T19:05:58.346Z,100.00
2023-05-02T19:08:26.132Z,100.00
2023-05-02T19:10:55.180Z,100.00
2023-05-02T19:22:10.380Z,100.00
2023-05-02T19:25:17.772Z,100.00
2023-05-02T19:27:51.087Z,100.00
2023-05-02T19:30:35.249Z,100.00
2023-05-02T19:33:03.003Z,100.00
2023-05-02T19:35:33.949Z,100.00
2023-05-02T19:38:01.910Z,100.00
2023-05-02T19:40:29.730Z,100.00
2023-05-02T19:42:58.902Z,100.00
2023-05-02T19:45:26.938Z,100.00
2023-05-02T19:47:54.710Z,100.00
2023-05-02T19:50:22.538Z,100.00
2023-05-02T19:52:51.542Z,100.00
2023-05-02T19:55:20.794Z,100.00
2023-05-02T19:57:48.866Z,100.00
2023-05-02T20:00:18.620Z,100.00
2023-05-02T20:02:47.809Z,100.00
2023-05-02T20:05:17.041Z,100.00
2023-05-02T20:07:46.489Z,100.00
2023-05-02T20:10:14.358Z,100.00
2023-05-02T20:12:44.997Z,100.00
2023-05-02T20:15:12.902Z,100.00
2023-05-02T20:17:42.043Z,100.00
2023-05-02T20:20:11.539Z,100.00
2023-05-02T20:22:40.592Z,100.00
2023-05-02T20:25:10.315Z,100.00
2023-05-02T20:27:38.281Z,100.00
2023-05-02T20:30:07.880Z,100.00
2023-05-02T20:32:36.247Z,100.00
2023-05-02T20:35:05.674Z,100.00
2023-05-02T20:37:33.594Z,100.00
2023-05-02T20:40:02.164Z,100.00
2023-05-02T20:42:30.197Z,100.00
2023-05-02T20:44:58.915Z,100.00
2023-05-02T20:47:27.966Z,100.00
2023-05-02T20:49:56.018Z,100.00
2023-05-02T20:52:25.643Z,100.00
2023-05-02T20:54:54.990Z,100.00
2023-05-02T20:57:23.064Z,100.00
2023-05-02T20:59:51.206Z,100.00
2023-05-02T21:02:19.232Z,100.00
2023-05-02T21:04:47.006Z,100.00
2023-05-02T21:07:14.881Z,100.00
2023-05-02T21:09:43.976Z,100.00
2023-05-02T21:12:11.777Z,100.00
2023-05-02T21:14:39.893Z,100.00
2023-05-02T21:17:07.687Z,100.00
2023-05-02T21:19:37.390Z,100.00
2023-05-02T21:22:05.282Z,100.00
2023-05-02T21:24:33.065Z,100.00
2023-05-02T21:27:02.317Z,100.00
2023-05-02T21:29:30.155Z,100.00
2023-05-02T21:31:57.940Z,100.00
2023-05-02T21:34:25.870Z,100.00
2023-05-02T21:36:53.592Z,100.00
2023-05-02T21:39:21.382Z,100.00
2023-05-02T21:41:49.288Z,100.00
2023-05-02T21:44:18.423Z,100.00
2023-05-02T21:46:47.495Z,100.00
2023-05-02T21:49:15.337Z,100.00
2023-05-02T21:51:43.180Z,100.00
2023-05-02T21:54:10.982Z,100.00
2023-05-02T21:56:38.783Z,100.00
2023-05-02T21:59:06.535Z,100.00
2023-05-02T22:01:35.696Z,100.00
2023-05-02T22:04:03.465Z,100.00
2023-05-02T22:06:31.816Z,100.00
2023-05-02T22:08:59.620Z,100.00
2023-05-02T22:11:31.344Z,100.00
2023-05-02T22:13:59.156Z,100.00
2023-05-02T22:16:27.327Z,100.00
2023-05-02T22:18:57.953Z,100.00
2023-05-02T22:21:25.928Z,100.00
2023-05-02T22:23:53.826Z,100.00
2023-05-02T22:26:23.173Z,100.00
2023-05-02T22:28:51.027Z,100.00
2023-05-02T22:31:19.513Z,100.00
2023-05-02T22:33:49.849Z,100.00
2023-05-02T22:36:19.214Z,100.00
2023-05-02T22:38:46.950Z,100.00
2023-05-02T22:41:15.054Z,100.00
2023-05-02T22:43:43.214Z,100.00
2023-05-02T22:46:11.038Z,100.00
2023-05-02T22:48:38.718Z,100.00
2023-05-02T22:51:06.572Z,100.00
2023-05-02T22:53:35.744Z,100.00
2023-05-02T22:56:03.431Z,100.00
2023-05-02T22:58:31.212Z,100.00
2023-05-02T23:00:59.009Z,100.00
2023-05-02T23:03:26.837Z,100.00
2023-05-02T23:05:54.975Z,100.00
2023-05-02T23:08:22.645Z,100.00
2023-05-02T23:10:51.857Z,100.00
2023-05-02T23:13:19.609Z,100.00
2023-05-02T23:15:48.051Z,100.00
2023-05-02T23:18:15.767Z,100.00
2023-05-02T23:20:43.832Z,100.00
2023-05-02T23:23:11.751Z,100.00
2023-05-02T23:25:40.131Z,100.00
2023-05-02T23:28:09.237Z,100.00
2023-05-02T23:30:39.532Z,100.00
2023-05-02T23:33:07.850Z,100.00
2023-05-02T23:35:36.445Z,100.00
2023-05-02T23:38:08.012Z,100.00
2023-05-02T23:40:35.938Z,100.00
2023-05-02T23:43:03.902Z,100.00
2023-05-02T23:45:33.106Z,100.00
2023-05-02T23:48:00.891Z,100.00
2023-05-02T23:50:28.670Z,100.00
2023-05-02T23:52:56.446Z,100.00
2023-05-02T23:55:24.201Z,100.00
2023-05-02T23:57:51.935Z,100.00
